Hovedside
METAR-TAF:

METAR-TAF

Lufthavner :

Yap, Mikronesia

breddegrad: 09-29N, lengdegrad: 138-05E, høyde over havet: 28 m

Gjeldene værobservasjon

Denne rapporten ble laget for 19 minutter siden, klokken 16:50 UTC
Vind 10 kt fra Vest-sørvest
Temperatur 28°C
Luftfuktighet 84%
Trykk 1008 hPa
Sikt: 19.3 km
Spredte skyer i en høyde av 1600 ft, Tårnskyer (cumulus).
Brutte skyer i en høyde av 13000 ft
Overskyet i en høyde av 30000 ft

METAR: PTYA 231650Z 25010KT 12SM SCT016TCU BKN130 OVC300 28/25 A2976 RMK SHRAE08 TCU E-SE SLP078 T02780245

Tid: 03:09 (17:09 UTC)

Varsel

Denne rapporten ble laget for 5 timer og 34 minutter siden, klokken 11:35 UTC
Varsel gyldig fra 23. klokken 12 UTC til 24. klokken 12 UTC
Vind 9 kt fra Sørvest
Sikt: 10 km
Spredte skyer i en høyde av 1600 ft
Brutte skyer i en høyde av 12000 ft
regnbyger i nærheten

TAF: PTYA 231135Z 2312/2412 23009KT P6SM VCSH SCT016 BKN120

Værobservasjoner og værvarsel for over 4000 flyplasser (METAR- og TAF-rapporter).

Tilgjengelige stasjoner er representert av de røde og gule prikkene på kartet.

Hold musepekeren over prikken for å se navnet på stasjonen.

Klikk så for å se værobservasjoner og -varsler.

For å forandre kartet kan du klikke på den grønne knappen med svart kryss for å zoome inn, på den grønne knappen med strek for å zoome ut, eller på de grønne pilene for å se tilstøtende kart.


METAR-TAF: